sensor_id;sensor_type;location;lat;lon;timestamp;P1;durP1;ratioP1;P2;durP2;ratioP2
66609;SDS011;53468;48.276;14.416;2022-09-03T00:01:08;3.70;;;1.02;;
66609;SDS011;53468;48.276;14.416;2022-09-03T00:06:44;2.22;;;1.05;;
66609;SDS011;53468;48.276;14.416;2022-09-03T00:12:22;4.65;;;1.23;;
66609;SDS011;53468;48.276;14.416;2022-09-03T00:18:00;3.53;;;1.20;;
66609;SDS011;53468;48.276;14.416;2022-09-03T00:23:38;2.75;;;1.33;;
66609;SDS011;53468;48.276;14.416;2022-09-03T00:29:12;2.33;;;1.08;;
66609;SDS011;53468;48.276;14.416;2022-09-03T00:34:51;1.80;;;0.80;;
66609;SDS011;53468;48.276;14.416;2022-09-03T00:40:36;2.42;;;1.17;;
66609;SDS011;53468;48.276;14.416;2022-09-03T00:46:32;2.95;;;1.20;;
66609;SDS011;53468;48.276;14.416;2022-09-03T00:52:16;2.67;;;1.02;;
66609;SDS011;53468;48.276;14.416;2022-09-03T00:58:12;3.03;;;1.27;;
66609;SDS011;53468;48.276;14.416;2022-09-03T01:03:58;3.05;;;1.33;;
66609;SDS011;53468;48.276;14.416;2022-09-03T01:09:43;3.55;;;1.20;;
66609;SDS011;53468;48.276;14.416;2022-09-03T01:15:25;4.47;;;1.80;;
66609;SDS011;53468;48.276;14.416;2022-09-03T01:21:12;3.40;;;1.27;;
66609;SDS011;53468;48.276;14.416;2022-09-03T01:27:16;2.42;;;1.25;;
66609;SDS011;53468;48.276;14.416;2022-09-03T01:33:04;3.20;;;1.40;;
66609;SDS011;53468;48.276;14.416;2022-09-03T01:44:19;1.67;;;1.10;;
66609;SDS011;53468;48.276;14.416;2022-09-03T01:50:12;3.70;;;1.50;;
66609;SDS011;53468;48.276;14.416;2022-09-03T01:55:55;2.75;;;1.50;;
66609;SDS011;53468;48.276;14.416;2022-09-03T02:01:40;2.42;;;1.52;;
66609;SDS011;53468;48.276;14.416;2022-09-03T02:07:20;4.18;;;1.75;;
66609;SDS011;53468;48.276;14.416;2022-09-03T02:12:57;2.70;;;1.48;;
66609;SDS011;53468;48.276;14.416;2022-09-03T02:18:36;2.72;;;1.15;;
66609;SDS011;53468;48.276;14.416;2022-09-03T02:24:15;2.55;;;1.50;;
66609;SDS011;53468;48.276;14.416;2022-09-03T02:29:51;5.00;;;1.40;;
66609;SDS011;53468;48.276;14.416;2022-09-03T02:35:25;3.08;;;1.23;;
66609;SDS011;53468;48.276;14.416;2022-09-03T02:41:02;3.80;;;1.40;;
66609;SDS011;53468;48.276;14.416;2022-09-03T02:46:37;3.53;;;1.55;;
66609;SDS011;53468;48.276;14.416;2022-09-03T02:52:16;2.55;;;1.52;;
66609;SDS011;53468;48.276;14.416;2022-09-03T02:58:11;3.38;;;1.50;;
66609;SDS011;53468;48.276;14.416;2022-09-03T03:03:45;2.78;;;1.55;;
66609;SDS011;53468;48.276;14.416;2022-09-03T03:09:19;2.30;;;1.40;;
66609;SDS011;53468;48.276;14.416;2022-09-03T03:14:57;4.55;;;1.88;;
66609;SDS011;53468;48.276;14.416;2022-09-03T03:20:30;2.53;;;1.50;;
66609;SDS011;53468;48.276;14.416;2022-09-03T03:26:06;4.47;;;1.42;;
66609;SDS011;53468;48.276;14.416;2022-09-03T03:31:56;3.70;;;1.67;;
66609;SDS011;53468;48.276;14.416;2022-09-03T03:37:29;2.40;;;1.60;;
66609;SDS011;53468;48.276;14.416;2022-09-03T03:43:05;2.95;;;1.77;;
66609;SDS011;53468;48.276;14.416;2022-09-03T03:49:02;4.03;;;1.33;;
66609;SDS011;53468;48.276;14.416;2022-09-03T03:54:57;3.33;;;1.58;;
66609;SDS011;53468;48.276;14.416;2022-09-03T04:00:30;3.13;;;1.90;;
66609;SDS011;53468;48.276;14.416;2022-09-03T04:06:11;8.68;;;1.75;;
66609;SDS011;53468;48.276;14.416;2022-09-03T04:12:07;3.78;;;1.63;;
66609;SDS011;53468;48.276;14.416;2022-09-03T04:17:43;5.05;;;1.70;;
66609;SDS011;53468;48.276;14.416;2022-09-03T04:23:24;3.70;;;1.58;;
66609;SDS011;53468;48.276;14.416;2022-09-03T04:29:32;2.47;;;1.50;;
66609;SDS011;53468;48.276;14.416;2022-09-03T04:35:19;2.78;;;1.67;;
66609;SDS011;53468;48.276;14.416;2022-09-03T04:41:22;4.03;;;1.67;;
66609;SDS011;53468;48.276;14.416;2022-09-03T04:47:18;2.53;;;1.60;;
66609;SDS011;53468;48.276;14.416;2022-09-03T04:53:16;3.38;;;2.17;;
66609;SDS011;53468;48.276;14.416;2022-09-03T04:59:37;4.30;;;1.67;;
66609;SDS011;53468;48.276;14.416;2022-09-03T05:05:15;2.30;;;1.73;;
66609;SDS011;53468;48.276;14.416;2022-09-03T05:11:01;5.60;;;1.70;;
66609;SDS011;53468;48.276;14.416;2022-09-03T05:16:55;3.75;;;1.85;;
66609;SDS011;53468;48.276;14.416;2022-09-03T05:22:50;3.90;;;1.73;;
66609;SDS011;53468;48.276;14.416;2022-09-03T05:28:30;3.25;;;1.50;;
66609;SDS011;53468;48.276;14.416;2022-09-03T05:34:40;2.85;;;1.80;;
66609;SDS011;53468;48.276;14.416;2022-09-03T05:40:23;6.70;;;1.73;;
66609;SDS011;53468;48.276;14.416;2022-09-03T05:46:11;2.85;;;1.92;;
66609;SDS011;53468;48.276;14.416;2022-09-03T05:51:52;3.10;;;1.73;;
66609;SDS011;53468;48.276;14.416;2022-09-03T05:57:27;3.22;;;1.67;;
66609;SDS011;53468;48.276;14.416;2022-09-03T06:03:22;3.20;;;1.83;;
66609;SDS011;53468;48.276;14.416;2022-09-03T06:08:59;2.65;;;1.90;;
66609;SDS011;53468;48.276;14.416;2022-09-03T06:14:34;3.30;;;1.67;;
66609;SDS011;53468;48.276;14.416;2022-09-03T06:20:08;2.63;;;1.77;;
66609;SDS011;53468;48.276;14.416;2022-09-03T06:25:42;4.32;;;1.48;;
66609;SDS011;53468;48.276;14.416;2022-09-03T06:31:15;2.88;;;1.80;;
66609;SDS011;53468;48.276;14.416;2022-09-03T06:36:50;3.38;;;1.80;;
66609;SDS011;53468;48.276;14.416;2022-09-03T06:42:24;4.32;;;2.00;;
66609;SDS011;53468;48.276;14.416;2022-09-03T06:47:57;2.67;;;1.50;;
66609;SDS011;53468;48.276;14.416;2022-09-03T06:53:30;3.60;;;1.60;;
66609;SDS011;53468;48.276;14.416;2022-09-03T06:59:06;4.57;;;1.95;;
66609;SDS011;53468;48.276;14.416;2022-09-03T07:04:40;2.35;;;1.30;;
66609;SDS011;53468;48.276;14.416;2022-09-03T07:10:13;5.78;;;1.80;;
66609;SDS011;53468;48.276;14.416;2022-09-03T07:15:58;2.90;;;1.25;;
66609;SDS011;53468;48.276;14.416;2022-09-03T07:21:32;6.28;;;2.33;;
66609;SDS011;53468;48.276;14.416;2022-09-03T07:27:06;6.07;;;2.03;;
66609;SDS011;53468;48.276;14.416;2022-09-03T07:32:40;2.80;;;1.70;;
66609;SDS011;53468;48.276;14.416;2022-09-03T07:38:15;3.05;;;1.85;;
66609;SDS011;53468;48.276;14.416;2022-09-03T07:43:48;3.78;;;2.03;;
66609;SDS011;53468;48.276;14.416;2022-09-03T07:49:22;2.88;;;1.63;;
66609;SDS011;53468;48.276;14.416;2022-09-03T07:54:55;3.75;;;1.95;;
66609;SDS011;53468;48.276;14.416;2022-09-03T08:00:27;5.43;;;2.45;;
66609;SDS011;53468;48.276;14.416;2022-09-03T08:06:04;5.40;;;1.80;;
66609;SDS011;53468;48.276;14.416;2022-09-03T08:11:38;3.55;;;1.67;;
66609;SDS011;53468;48.276;14.416;2022-09-03T08:17:12;2.65;;;1.50;;
66609;SDS011;53468;48.276;14.416;2022-09-03T08:22:46;7.75;;;1.80;;
66609;SDS011;53468;48.276;14.416;2022-09-03T08:28:18;2.03;;;1.50;;
66609;SDS011;53468;48.276;14.416;2022-09-03T08:33:51;5.88;;;2.08;;
66609;SDS011;53468;48.276;14.416;2022-09-03T08:39:26;2.42;;;1.50;;
66609;SDS011;53468;48.276;14.416;2022-09-03T08:44:58;4.60;;;2.05;;
66609;SDS011;53468;48.276;14.416;2022-09-03T08:50:33;4.78;;;1.70;;
66609;SDS011;53468;48.276;14.416;2022-09-03T08:56:11;2.47;;;1.65;;
66609;SDS011;53468;48.276;14.416;2022-09-03T09:01:50;2.55;;;1.70;;
66609;SDS011;53468;48.276;14.416;2022-09-03T09:07:29;5.72;;;1.80;;
66609;SDS011;53468;48.276;14.416;2022-09-03T09:13:11;4.93;;;2.20;;
66609;SDS011;53468;48.276;14.416;2022-09-03T09:18:55;4.90;;;1.80;;
66609;SDS011;53468;48.276;14.416;2022-09-03T09:24:41;2.95;;;1.92;;
66609;SDS011;53468;48.276;14.416;2022-09-03T09:30:17;4.78;;;1.95;;
66609;SDS011;53468;48.276;14.416;2022-09-03T09:35:49;4.57;;;1.95;;
66609;SDS011;53468;48.276;14.416;2022-09-03T09:41:22;4.07;;;2.20;;
66609;SDS011;53468;48.276;14.416;2022-09-03T09:47:02;2.90;;;1.60;;
66609;SDS011;53468;48.276;14.416;2022-09-03T09:52:37;3.15;;;1.60;;
66609;SDS011;53468;48.276;14.416;2022-09-03T09:58:09;3.30;;;2.00;;
66609;SDS011;53468;48.276;14.416;2022-09-03T10:03:48;3.75;;;2.05;;
66609;SDS011;53468;48.276;14.416;2022-09-03T10:09:24;3.95;;;2.05;;
66609;SDS011;53468;48.276;14.416;2022-09-03T10:15:01;4.25;;;2.17;;
66609;SDS011;53468;48.276;14.416;2022-09-03T10:20:44;2.70;;;1.60;;
66609;SDS011;53468;48.276;14.416;2022-09-03T10:26:25;2.35;;;1.75;;
66609;SDS011;53468;48.276;14.416;2022-09-03T10:32:13;3.00;;;1.92;;
66609;SDS011;53468;48.276;14.416;2022-09-03T10:37:59;4.22;;;1.92;;
66609;SDS011;53468;48.276;14.416;2022-09-03T10:49:39;3.35;;;2.03;;
66609;SDS011;53468;48.276;14.416;2022-09-03T10:55:28;5.30;;;2.13;;
66609;SDS011;53468;48.276;14.416;2022-09-03T11:01:08;3.05;;;1.65;;
66609;SDS011;53468;48.276;14.416;2022-09-03T11:06:49;4.15;;;2.08;;
66609;SDS011;53468;48.276;14.416;2022-09-03T11:12:26;3.30;;;2.13;;
66609;SDS011;53468;48.276;14.416;2022-09-03T11:18:03;3.00;;;1.70;;
66609;SDS011;53468;48.276;14.416;2022-09-03T11:23:43;2.80;;;1.70;;
66609;SDS011;53468;48.276;14.416;2022-09-03T11:29:19;2.83;;;1.58;;
66609;SDS011;53468;48.276;14.416;2022-09-03T11:35:00;2.45;;;1.50;;
66609;SDS011;53468;48.276;14.416;2022-09-03T11:40:57;3.47;;;2.20;;
66609;SDS011;53468;48.276;14.416;2022-09-03T11:46:35;3.13;;;2.08;;
66609;SDS011;53468;48.276;14.416;2022-09-03T11:52:11;5.05;;;1.90;;
66609;SDS011;53468;48.276;14.416;2022-09-03T11:57:43;2.75;;;1.75;;
66609;SDS011;53468;48.276;14.416;2022-09-03T12:03:20;4.28;;;1.63;;
66609;SDS011;53468;48.276;14.416;2022-09-03T12:08:59;2.87;;;1.67;;
66609;SDS011;53468;48.276;14.416;2022-09-03T12:14:45;1.58;;;1.23;;
66609;SDS011;53468;48.276;14.416;2022-09-03T12:20:28;3.03;;;1.80;;
66609;SDS011;53468;48.276;14.416;2022-09-03T12:26:01;7.90;;;2.05;;
66609;SDS011;53468;48.276;14.416;2022-09-03T12:31:42;2.65;;;1.20;;
66609;SDS011;53468;48.276;14.416;2022-09-03T12:37:21;4.13;;;1.77;;
66609;SDS011;53468;48.276;14.416;2022-09-03T12:42:54;4.03;;;1.83;;
66609;SDS011;53468;48.276;14.416;2022-09-03T12:48:45;2.85;;;1.40;;
66609;SDS011;53468;48.276;14.416;2022-09-03T12:54:25;2.35;;;1.70;;
66609;SDS011;53468;48.276;14.416;2022-09-03T13:00:02;3.13;;;1.48;;
66609;SDS011;53468;48.276;14.416;2022-09-03T13:05:40;2.30;;;1.80;;
66609;SDS011;53468;48.276;14.416;2022-09-03T13:11:19;5.27;;;1.50;;
66609;SDS011;53468;48.276;14.416;2022-09-03T13:17:02;2.30;;;1.50;;
66609;SDS011;53468;48.276;14.416;2022-09-03T13:34:56;3.30;;;1.67;;
66609;SDS011;53468;48.276;14.416;2022-09-03T13:40:35;3.45;;;1.70;;
66609;SDS011;53468;48.276;14.416;2022-09-03T13:46:16;3.38;;;1.58;;
66609;SDS011;53468;48.276;14.416;2022-09-03T13:51:55;2.75;;;1.55;;
66609;SDS011;53468;48.276;14.416;2022-09-03T13:57:32;2.03;;;1.38;;
66609;SDS011;53468;48.276;14.416;2022-09-03T14:03:11;5.22;;;1.73;;
66609;SDS011;53468;48.276;14.416;2022-09-03T14:08:55;2.38;;;1.63;;
66609;SDS011;53468;48.276;14.416;2022-09-03T14:14:36;3.72;;;1.75;;
66609;SDS011;53468;48.276;14.416;2022-09-03T14:20:18;3.80;;;1.73;;
66609;SDS011;53468;48.276;14.416;2022-09-03T14:25:56;3.97;;;1.75;;
66609;SDS011;53468;48.276;14.416;2022-09-03T14:37:33;6.70;;;1.77;;
66609;SDS011;53468;48.276;14.416;2022-09-03T14:43:23;3.40;;;1.80;;
66609;SDS011;53468;48.276;14.416;2022-09-03T14:49:14;2.17;;;1.35;;
66609;SDS011;53468;48.276;14.416;2022-09-03T14:55:05;2.63;;;1.33;;
66609;SDS011;53468;48.276;14.416;2022-09-03T15:00:54;2.58;;;1.80;;
66609;SDS011;53468;48.276;14.416;2022-09-03T15:06:36;4.78;;;1.42;;
66609;SDS011;53468;48.276;14.416;2022-09-03T15:12:21;3.25;;;1.83;;
66609;SDS011;53468;48.276;14.416;2022-09-03T15:18:01;4.07;;;1.80;;
66609;SDS011;53468;48.276;14.416;2022-09-03T15:23:46;3.60;;;1.40;;
66609;SDS011;53468;48.276;14.416;2022-09-03T15:29:31;2.55;;;1.23;;
66609;SDS011;53468;48.276;14.416;2022-09-03T15:35:15;8.70;;;1.75;;
66609;SDS011;53468;48.276;14.416;2022-09-03T15:41:04;2.47;;;1.40;;
66609;SDS011;53468;48.276;14.416;2022-09-03T15:46:53;2.35;;;1.45;;
66609;SDS011;53468;48.276;14.416;2022-09-03T15:52:30;4.57;;;1.60;;
66609;SDS011;53468;48.276;14.416;2022-09-03T15:58:10;2.45;;;1.40;;
66609;SDS011;53468;48.276;14.416;2022-09-03T16:03:57;2.75;;;1.40;;
66609;SDS011;53468;48.276;14.416;2022-09-03T16:09:45;2.38;;;1.40;;
66609;SDS011;53468;48.276;14.416;2022-09-03T16:15:24;2.33;;;1.45;;
66609;SDS011;53468;48.276;14.416;2022-09-03T16:21:02;5.13;;;1.95;;
66609;SDS011;53468;48.276;14.416;2022-09-03T16:26:40;5.35;;;2.42;;
66609;SDS011;53468;48.276;14.416;2022-09-03T16:32:21;4.18;;;1.83;;
66609;SDS011;53468;48.276;14.416;2022-09-03T16:38:11;3.03;;;1.45;;
66609;SDS011;53468;48.276;14.416;2022-09-03T16:44:00;8.07;;;2.22;;
66609;SDS011;53468;48.276;14.416;2022-09-03T16:49:45;4.47;;;2.15;;
66609;SDS011;53468;48.276;14.416;2022-09-03T16:55:31;6.70;;;2.10;;
66609;SDS011;53468;48.276;14.416;2022-09-03T17:01:21;2.85;;;2.15;;
66609;SDS011;53468;48.276;14.416;2022-09-03T17:07:16;2.90;;;1.50;;
66609;SDS011;53468;48.276;14.416;2022-09-03T17:18:42;3.03;;;2.00;;
66609;SDS011;53468;48.276;14.416;2022-09-03T17:24:34;3.33;;;1.90;;
66609;SDS011;53468;48.276;14.416;2022-09-03T17:30:14;2.67;;;1.77;;
66609;SDS011;53468;48.276;14.416;2022-09-03T17:35:53;6.70;;;2.22;;
66609;SDS011;53468;48.276;14.416;2022-09-03T17:41:33;8.65;;;2.03;;
66609;SDS011;53468;48.276;14.416;2022-09-03T17:47:23;6.50;;;2.73;;
66609;SDS011;53468;48.276;14.416;2022-09-03T17:53:09;10.48;;;3.95;;
66609;SDS011;53468;48.276;14.416;2022-09-03T17:58:50;9.55;;;3.28;;
66609;SDS011;53468;48.276;14.416;2022-09-03T18:04:33;7.55;;;3.65;;
66609;SDS011;53468;48.276;14.416;2022-09-03T18:10:18;7.63;;;3.50;;
66609;SDS011;53468;48.276;14.416;2022-09-03T18:15:58;5.07;;;3.53;;
66609;SDS011;53468;48.276;14.416;2022-09-03T18:21:38;4.85;;;3.63;;
66609;SDS011;53468;48.276;14.416;2022-09-03T18:27:32;9.35;;;4.85;;
66609;SDS011;53468;48.276;14.416;2022-09-03T18:33:27;6.93;;;4.47;;
66609;SDS011;53468;48.276;14.416;2022-09-03T18:39:22;8.20;;;4.88;;
66609;SDS011;53468;48.276;14.416;2022-09-03T18:45:15;7.15;;;4.93;;
66609;SDS011;53468;48.276;14.416;2022-09-03T18:51:19;8.05;;;6.68;;
66609;SDS011;53468;48.276;14.416;2022-09-03T18:57:17;10.38;;;5.88;;
66609;SDS011;53468;48.276;14.416;2022-09-03T19:03:15;6.88;;;5.60;;
66609;SDS011;53468;48.276;14.416;2022-09-03T19:09:27;11.43;;;7.60;;
66609;SDS011;53468;48.276;14.416;2022-09-03T19:15:27;8.85;;;5.80;;
66609;SDS011;53468;48.276;14.416;2022-09-03T19:21:21;5.13;;;3.38;;
66609;SDS011;53468;48.276;14.416;2022-09-03T19:27:18;5.53;;;3.53;;
66609;SDS011;53468;48.276;14.416;2022-09-03T19:33:17;4.57;;;3.50;;
66609;SDS011;53468;48.276;14.416;2022-09-03T19:39:18;4.53;;;3.67;;
66609;SDS011;53468;48.276;14.416;2022-09-03T19:45:21;5.18;;;3.10;;
66609;SDS011;53468;48.276;14.416;2022-09-03T19:51:19;4.45;;;3.67;;
66609;SDS011;53468;48.276;14.416;2022-09-03T19:57:13;4.90;;;4.10;;
66609;SDS011;53468;48.276;14.416;2022-09-03T20:03:05;8.45;;;5.18;;
66609;SDS011;53468;48.276;14.416;2022-09-03T20:08:58;7.28;;;5.80;;
66609;SDS011;53468;48.276;14.416;2022-09-03T20:14:54;7.20;;;5.28;;
66609;SDS011;53468;48.276;14.416;2022-09-03T20:20:28;6.55;;;5.43;;
66609;SDS011;53468;48.276;14.416;2022-09-03T20:31:49;7.95;;;5.97;;
66609;SDS011;53468;48.276;14.416;2022-09-03T20:37:28;9.63;;;6.07;;
66609;SDS011;53468;48.276;14.416;2022-09-03T20:43:13;8.25;;;5.55;;
66609;SDS011;53468;48.276;14.416;2022-09-03T20:49:03;5.90;;;4.80;;
66609;SDS011;53468;48.276;14.416;2022-09-03T20:54:46;9.30;;;5.88;;
66609;SDS011;53468;48.276;14.416;2022-09-03T21:00:29;8.55;;;5.95;;
66609;SDS011;53468;48.276;14.416;2022-09-03T21:06:21;7.78;;;5.78;;
66609;SDS011;53468;48.276;14.416;2022-09-03T21:12:02;8.48;;;5.47;;
66609;SDS011;53468;48.276;14.416;2022-09-03T21:17:43;10.68;;;6.00;;
66609;SDS011;53468;48.276;14.416;2022-09-03T21:23:23;8.05;;;6.47;;
66609;SDS011;53468;48.276;14.416;2022-09-03T21:28:59;6.75;;;5.05;;
66609;SDS011;53468;48.276;14.416;2022-09-03T21:34:38;7.57;;;5.93;;
66609;SDS011;53468;48.276;14.416;2022-09-03T21:40:12;8.20;;;6.40;;
66609;SDS011;53468;48.276;14.416;2022-09-03T21:45:50;9.85;;;6.78;;
66609;SDS011;53468;48.276;14.416;2022-09-03T21:51:32;9.98;;;7.50;;
66609;SDS011;53468;48.276;14.416;2022-09-03T21:57:11;11.88;;;9.70;;
66609;SDS011;53468;48.276;14.416;2022-09-03T22:02:43;10.32;;;7.97;;
66609;SDS011;53468;48.276;14.416;2022-09-03T22:08:19;12.60;;;9.38;;
66609;SDS011;53468;48.276;14.416;2022-09-03T22:14:00;13.30;;;9.13;;
66609;SDS011;53468;48.276;14.416;2022-09-03T22:19:37;11.52;;;9.32;;
66609;SDS011;53468;48.276;14.416;2022-09-03T22:25:13;13.00;;;9.13;;
66609;SDS011;53468;48.276;14.416;2022-09-03T22:30:52;9.27;;;7.37;;
66609;SDS011;53468;48.276;14.416;2022-09-03T22:36:32;10.95;;;7.93;;
66609;SDS011;53468;48.276;14.416;2022-09-03T22:42:19;14.10;;;8.15;;
66609;SDS011;53468;48.276;14.416;2022-09-03T22:48:01;11.25;;;8.05;;
66609;SDS011;53468;48.276;14.416;2022-09-03T22:53:49;9.90;;;7.60;;
66609;SDS011;53468;48.276;14.416;2022-09-03T22:59:38;10.93;;;7.60;;
66609;SDS011;53468;48.276;14.416;2022-09-03T23:05:21;9.95;;;8.20;;
66609;SDS011;53468;48.276;14.416;2022-09-03T23:11:03;10.60;;;7.38;;
66609;SDS011;53468;48.276;14.416;2022-09-03T23:16:40;11.93;;;7.47;;
66609;SDS011;53468;48.276;14.416;2022-09-03T23:22:17;9.98;;;7.65;;
66609;SDS011;53468;48.276;14.416;2022-09-03T23:27:53;10.10;;;7.93;;
66609;SDS011;53468;48.276;14.416;2022-09-03T23:33:30;11.32;;;8.00;;
66609;SDS011;53468;48.276;14.416;2022-09-03T23:39:04;12.48;;;8.73;;
66609;SDS011;53468;48.276;14.416;2022-09-03T23:44:48;10.32;;;8.18;;
66609;SDS011;53468;48.276;14.416;2022-09-03T23:50:36;10.90;;;8.00;;
